sensor_id;sensor_type;location;lat;lon;timestamp;temperature;humidity
75281;HTU21D;63874;47.230;39.620;2023-04-29T00:01:32;15.46;79.21
75281;HTU21D;63874;47.230;39.620;2023-04-29T00:03:58;15.37;79.33
75281;HTU21D;63874;47.230;39.620;2023-04-29T00:06:24;15.19;79.83
75281;HTU21D;63874;47.230;39.620;2023-04-29T00:08:50;15.09;80.10
75281;HTU21D;63874;47.230;39.620;2023-04-29T00:11:16;14.98;80.38
75281;HTU21D;63874;47.230;39.620;2023-04-29T00:13:42;14.93;80.50
75281;HTU21D;63874;47.230;39.620;2023-04-29T00:16:08;14.86;80.75
75281;HTU21D;63874;47.230;39.620;2023-04-29T00:18:37;14.80;80.86
75281;HTU21D;63874;47.230;39.620;2023-04-29T00:21:03;14.77;80.94
75281;HTU21D;63874;47.230;39.620;2023-04-29T00:23:33;14.73;81.04
75281;HTU21D;63874;47.230;39.620;2023-04-29T00:25:59;14.68;81.09
75281;HTU21D;63874;47.230;39.620;2023-04-29T00:28:25;14.66;81.10
75281;HTU21D;63874;47.230;39.620;2023-04-29T00:30:51;14.63;81.20
75281;HTU21D;63874;47.230;39.620;2023-04-29T00:33:17;14.58;81.26
75281;HTU21D;63874;47.230;39.620;2023-04-29T00:35:43;14.58;81.25
75281;HTU21D;63874;47.230;39.620;2023-04-29T00:38:09;14.59;81.24
75281;HTU21D;63874;47.230;39.620;2023-04-29T00:40:35;14.58;81.24
75281;HTU21D;63874;47.230;39.620;2023-04-29T00:43:01;14.57;81.27
75281;HTU21D;63874;47.230;39.620;2023-04-29T00:45:27;14.58;81.24
75281;HTU21D;63874;47.230;39.620;2023-04-29T00:47:53;14.56;81.24
75281;HTU21D;63874;47.230;39.620;2023-04-29T00:50:20;14.55;81.22
75281;HTU21D;63874;47.230;39.620;2023-04-29T00:52:46;14.52;81.20
75281;HTU21D;63874;47.230;39.620;2023-04-29T00:55:13;14.49;81.19
75281;HTU21D;63874;47.230;39.620;2023-04-29T00:57:38;14.48;81.23
75281;HTU21D;63874;47.230;39.620;2023-04-29T01:00:05;14.43;81.25
75281;HTU21D;63874;47.230;39.620;2023-04-29T01:02:31;14.39;81.25
75281;HTU21D;63874;47.230;39.620;2023-04-29T01:04:58;14.34;81.28
75281;HTU21D;63874;47.230;39.620;2023-04-29T01:07:38;14.33;81.36
75281;HTU21D;63874;47.230;39.620;2023-04-29T01:13:17;14.26;81.27
75281;HTU21D;63874;47.230;39.620;2023-04-29T01:16:46;14.24;81.35
75281;HTU21D;63874;47.230;39.620;2023-04-29T01:22:05;14.17;81.29
75281;HTU21D;63874;47.230;39.620;2023-04-29T01:24:33;14.13;81.33
75281;HTU21D;63874;47.230;39.620;2023-04-29T01:27:22;14.13;81.33
75281;HTU21D;63874;47.230;39.620;2023-04-29T01:32:40;14.08;81.21
75281;HTU21D;63874;47.230;39.620;2023-04-29T01:39:08;14.06;81.30
75281;HTU21D;63874;47.230;39.620;2023-04-29T01:41:44;14.01;81.21
75281;HTU21D;63874;47.230;39.620;2023-04-29T01:44:27;13.96;81.40
75281;HTU21D;63874;47.230;39.620;2023-04-29T01:46:54;13.98;81.36
75281;HTU21D;63874;47.230;39.620;2023-04-29T01:49:27;13.99;81.18
75281;HTU21D;63874;47.230;39.620;2023-04-29T01:51:54;13.97;81.15
75281;HTU21D;63874;47.230;39.620;2023-04-29T01:54:21;13.96;81.26
75281;HTU21D;63874;47.230;39.620;2023-04-29T01:56:47;13.91;81.38
75281;HTU21D;63874;47.230;39.620;2023-04-29T01:59:21;13.91;81.37
75281;HTU21D;63874;47.230;39.620;2023-04-29T02:02:05;13.89;81.46
75281;HTU21D;63874;47.230;39.620;2023-04-29T02:04:33;13.84;81.52
75281;HTU21D;63874;47.230;39.620;2023-04-29T02:06:59;13.77;81.72
75281;HTU21D;63874;47.230;39.620;2023-04-29T02:09:26;13.79;81.61
75281;HTU21D;63874;47.230;39.620;2023-04-29T02:11:59;13.73;81.87
75281;HTU21D;63874;47.230;39.620;2023-04-29T02:14:29;13.70;81.89
75281;HTU21D;63874;47.230;39.620;2023-04-29T02:16:56;13.74;81.82
75281;HTU21D;63874;47.230;39.620;2023-04-29T02:19:22;13.70;81.89
75281;HTU21D;63874;47.230;39.620;2023-04-29T02:21:51;13.70;81.81
75281;HTU21D;63874;47.230;39.620;2023-04-29T02:24:17;13.69;81.86
75281;HTU21D;63874;47.230;39.620;2023-04-29T02:26:46;13.69;81.91
75281;HTU21D;63874;47.230;39.620;2023-04-29T02:29:12;13.67;82.01
75281;HTU21D;63874;47.230;39.620;2023-04-29T02:31:38;13.71;81.94
75281;HTU21D;63874;47.230;39.620;2023-04-29T02:34:04;13.73;81.81
75281;HTU21D;63874;47.230;39.620;2023-04-29T02:36:33;13.71;81.85
75281;HTU21D;63874;47.230;39.620;2023-04-29T02:38:59;13.75;81.81
75281;HTU21D;63874;47.230;39.620;2023-04-29T02:41:25;13.77;81.70
75281;HTU21D;63874;47.230;39.620;2023-04-29T02:43:51;13.77;81.72
75281;HTU21D;63874;47.230;39.620;2023-04-29T02:46:16;13.80;81.65
75281;HTU21D;63874;47.230;39.620;2023-04-29T02:48:43;13.81;81.62
75281;HTU21D;63874;47.230;39.620;2023-04-29T02:51:10;13.83;81.60
75281;HTU21D;63874;47.230;39.620;2023-04-29T02:53:36;13.85;81.57
75281;HTU21D;63874;47.230;39.620;2023-04-29T02:56:02;13.89;81.51
75281;HTU21D;63874;47.230;39.620;2023-04-29T02:58:28;13.91;81.37
75281;HTU21D;63874;47.230;39.620;2023-04-29T03:00:54;13.91;81.39
75281;HTU21D;63874;47.230;39.620;2023-04-29T03:03:20;13.93;81.31
75281;HTU21D;63874;47.230;39.620;2023-04-29T03:05:45;13.92;81.29
75281;HTU21D;63874;47.230;39.620;2023-04-29T03:08:11;13.92;81.32
75281;HTU21D;63874;47.230;39.620;2023-04-29T03:10:37;13.93;81.30
75281;HTU21D;63874;47.230;39.620;2023-04-29T03:13:04;13.97;81.27
75281;HTU21D;63874;47.230;39.620;2023-04-29T03:15:31;13.99;81.21
75281;HTU21D;63874;47.230;39.620;2023-04-29T03:17:57;14.00;81.19
75281;HTU21D;63874;47.230;39.620;2023-04-29T03:20:26;14.05;81.12
75281;HTU21D;63874;47.230;39.620;2023-04-29T03:22:52;14.06;81.01
75281;HTU21D;63874;47.230;39.620;2023-04-29T03:25:18;14.10;80.88
75281;HTU21D;63874;47.230;39.620;2023-04-29T03:27:44;14.11;80.85
75281;HTU21D;63874;47.230;39.620;2023-04-29T03:30:10;14.17;80.84
75281;HTU21D;63874;47.230;39.620;2023-04-29T03:32:43;14.23;80.67
75281;HTU21D;63874;47.230;39.620;2023-04-29T03:35:09;14.28;80.56
75281;HTU21D;63874;47.230;39.620;2023-04-29T03:37:42;14.34;80.49
75281;HTU21D;63874;47.230;39.620;2023-04-29T03:40:20;14.38;80.34
75281;HTU21D;63874;47.230;39.620;2023-04-29T03:42:48;14.41;80.29
75281;HTU21D;63874;47.230;39.620;2023-04-29T03:45:14;14.47;80.23
75281;HTU21D;63874;47.230;39.620;2023-04-29T03:47:40;14.51;80.19
75281;HTU21D;63874;47.230;39.620;2023-04-29T03:50:06;14.58;80.15
75281;HTU21D;63874;47.230;39.620;2023-04-29T03:52:33;14.64;80.06
75281;HTU21D;63874;47.230;39.620;2023-04-29T03:55:08;14.67;79.96
75281;HTU21D;63874;47.230;39.620;2023-04-29T03:57:35;14.67;79.90
75281;HTU21D;63874;47.230;39.620;2023-04-29T04:00:01;14.64;79.89
75281;HTU21D;63874;47.230;39.620;2023-04-29T04:02:27;14.65;79.80
75281;HTU21D;63874;47.230;39.620;2023-04-29T04:04:53;14.64;79.78
75281;HTU21D;63874;47.230;39.620;2023-04-29T04:07:20;14.60;79.77
75281;HTU21D;63874;47.230;39.620;2023-04-29T04:10:05;14.54;79.82
75281;HTU21D;63874;47.230;39.620;2023-04-29T04:12:31;14.50;79.92
75281;HTU21D;63874;47.230;39.620;2023-04-29T04:14:57;14.48;80.03
75281;HTU21D;63874;47.230;39.620;2023-04-29T04:17:24;14.47;80.14
75281;HTU21D;63874;47.230;39.620;2023-04-29T04:19:50;14.48;80.22
75281;HTU21D;63874;47.230;39.620;2023-04-29T04:22:16;14.45;80.17
75281;HTU21D;63874;47.230;39.620;2023-04-29T04:24:54;14.44;80.30
75281;HTU21D;63874;47.230;39.620;2023-04-29T04:27:20;14.41;80.11
75281;HTU21D;63874;47.230;39.620;2023-04-29T04:29:47;14.39;80.24
75281;HTU21D;63874;47.230;39.620;2023-04-29T04:32:16;14.38;80.38
75281;HTU21D;63874;47.230;39.620;2023-04-29T04:34:43;14.39;80.41
75281;HTU21D;63874;47.230;39.620;2023-04-29T04:37:09;14.39;80.47
75281;HTU21D;63874;47.230;39.620;2023-04-29T04:39:37;14.41;80.46
75281;HTU21D;63874;47.230;39.620;2023-04-29T04:42:03;14.44;80.40
75281;HTU21D;63874;47.230;39.620;2023-04-29T04:44:31;14.47;80.44
75281;HTU21D;63874;47.230;39.620;2023-04-29T04:47:06;14.53;80.36
75281;HTU21D;63874;47.230;39.620;2023-04-29T04:49:43;14.62;80.26
75281;HTU21D;63874;47.230;39.620;2023-04-29T04:52:11;14.72;80.11
75281;HTU21D;63874;47.230;39.620;2023-04-29T04:54:37;14.81;79.89
75281;HTU21D;63874;47.230;39.620;2023-04-29T04:57:11;14.88;79.64
75281;HTU21D;63874;47.230;39.620;2023-04-29T04:59:37;14.91;79.46
75281;HTU21D;63874;47.230;39.620;2023-04-29T05:02:03;14.93;79.33
75281;HTU21D;63874;47.230;39.620;2023-04-29T05:04:29;14.91;79.23
75281;HTU21D;63874;47.230;39.620;2023-04-29T05:06:55;14.92;79.20
75281;HTU21D;63874;47.230;39.620;2023-04-29T05:09:24;14.92;79.21
75281;HTU21D;63874;47.230;39.620;2023-04-29T05:11:51;14.94;79.29
75281;HTU21D;63874;47.230;39.620;2023-04-29T05:14:17;15.00;79.16
75281;HTU21D;63874;47.230;39.620;2023-04-29T05:16:44;15.04;79.10
75281;HTU21D;63874;47.230;39.620;2023-04-29T05:19:11;15.08;79.09
75281;HTU21D;63874;47.230;39.620;2023-04-29T05:21:39;15.16;78.90
75281;HTU21D;63874;47.230;39.620;2023-04-29T05:24:07;15.19;78.65
75281;HTU21D;63874;47.230;39.620;2023-04-29T05:26:33;15.26;78.53
75281;HTU21D;63874;47.230;39.620;2023-04-29T05:29:00;15.33;78.42
75281;HTU21D;63874;47.230;39.620;2023-04-29T05:31:28;15.43;78.26
75281;HTU21D;63874;47.230;39.620;2023-04-29T05:33:56;15.52;78.24
75281;HTU21D;63874;47.230;39.620;2023-04-29T05:36:23;15.61;78.11
75281;HTU21D;63874;47.230;39.620;2023-04-29T05:38:49;15.66;77.58
75281;HTU21D;63874;47.230;39.620;2023-04-29T05:41:15;15.63;77.18
75281;HTU21D;63874;47.230;39.620;2023-04-29T05:43:53;15.66;77.27
75281;HTU21D;63874;47.230;39.620;2023-04-29T05:46:19;15.70;77.13
75281;HTU21D;63874;47.230;39.620;2023-04-29T05:48:48;15.72;77.19
75281;HTU21D;63874;47.230;39.620;2023-04-29T05:51:14;15.83;77.35
75281;HTU21D;63874;47.230;39.620;2023-04-29T05:53:40;16.00;77.14
75281;HTU21D;63874;47.230;39.620;2023-04-29T05:56:06;16.17;76.86
75281;HTU21D;63874;47.230;39.620;2023-04-29T05:58:34;16.34;76.37
75281;HTU21D;63874;47.230;39.620;2023-04-29T06:01:00;16.54;75.62
75281;HTU21D;63874;47.230;39.620;2023-04-29T06:03:27;16.64;75.28
75281;HTU21D;63874;47.230;39.620;2023-04-29T06:06:16;16.74;75.24
75281;HTU21D;63874;47.230;39.620;2023-04-29T06:09:20;16.89;75.23
75281;HTU21D;63874;47.230;39.620;2023-04-29T06:11:46;17.04;74.69
75281;HTU21D;63874;47.230;39.620;2023-04-29T06:14:12;17.19;74.18
75281;HTU21D;63874;47.230;39.620;2023-04-29T06:16:41;17.31;73.74
75281;HTU21D;63874;47.230;39.620;2023-04-29T06:19:08;17.49;73.38
75281;HTU21D;63874;47.230;39.620;2023-04-29T06:21:34;17.63;72.98
75281;HTU21D;63874;47.230;39.620;2023-04-29T06:24:00;17.77;72.70
75281;HTU21D;63874;47.230;39.620;2023-04-29T06:26:26;17.83;72.39
75281;HTU21D;63874;47.230;39.620;2023-04-29T06:28:52;17.83;72.24
75281;HTU21D;63874;47.230;39.620;2023-04-29T06:31:20;17.76;72.42
75281;HTU21D;63874;47.230;39.620;2023-04-29T06:33:46;17.73;72.61
75281;HTU21D;63874;47.230;39.620;2023-04-29T06:36:14;17.74;72.49
75281;HTU21D;63874;47.230;39.620;2023-04-29T06:38:40;17.74;72.54
75281;HTU21D;63874;47.230;39.620;2023-04-29T06:41:35;17.87;72.57
75281;HTU21D;63874;47.230;39.620;2023-04-29T06:44:30;18.05;72.51
75281;HTU21D;63874;47.230;39.620;2023-04-29T06:47:14;18.24;72.47
75281;HTU21D;63874;47.230;39.620;2023-04-29T06:49:59;18.41;71.45
75281;HTU21D;63874;47.230;39.620;2023-04-29T06:52:24;18.47;70.58
75281;HTU21D;63874;47.230;39.620;2023-04-29T06:54:50;18.61;70.68
75281;HTU21D;63874;47.230;39.620;2023-04-29T06:57:17;18.70;70.24
75281;HTU21D;63874;47.230;39.620;2023-04-29T06:59:45;18.76;70.03
75281;HTU21D;63874;47.230;39.620;2023-04-29T07:02:11;18.86;70.31
75281;HTU21D;63874;47.230;39.620;2023-04-29T07:04:38;19.05;69.68
75281;HTU21D;63874;47.230;39.620;2023-04-29T07:07:03;19.14;69.40
75281;HTU21D;63874;47.230;39.620;2023-04-29T07:09:29;19.28;68.55
75281;HTU21D;63874;47.230;39.620;2023-04-29T07:11:55;19.33;68.17
75281;HTU21D;63874;47.230;39.620;2023-04-29T07:14:21;19.44;68.35
75281;HTU21D;63874;47.230;39.620;2023-04-29T07:16:52;19.58;67.80
75281;HTU21D;63874;47.230;39.620;2023-04-29T07:19:18;19.63;67.36
75281;HTU21D;63874;47.230;39.620;2023-04-29T07:21:45;19.52;66.93
75281;HTU21D;63874;47.230;39.620;2023-04-29T07:24:10;19.32;67.24
75281;HTU21D;63874;47.230;39.620;2023-04-29T07:26:36;19.15;67.94
75281;HTU21D;63874;47.230;39.620;2023-04-29T07:29:02;19.01;68.20
75281;HTU21D;63874;47.230;39.620;2023-04-29T07:31:28;18.92;68.80
75281;HTU21D;63874;47.230;39.620;2023-04-29T07:33:54;18.96;69.25
75281;HTU21D;63874;47.230;39.620;2023-04-29T07:36:21;19.13;69.23
75281;HTU21D;63874;47.230;39.620;2023-04-29T07:38:47;19.39;68.55
75281;HTU21D;63874;47.230;39.620;2023-04-29T07:41:22;19.55;67.97
75281;HTU21D;63874;47.230;39.620;2023-04-29T07:43:48;19.63;67.49
75281;HTU21D;63874;47.230;39.620;2023-04-29T07:46:13;19.68;67.69
75281;HTU21D;63874;47.230;39.620;2023-04-29T07:48:42;19.68;67.56
75281;HTU21D;63874;47.230;39.620;2023-04-29T07:51:14;19.57;68.01
75281;HTU21D;63874;47.230;39.620;2023-04-29T07:53:41;19.45;68.36
75281;HTU21D;63874;47.230;39.620;2023-04-29T07:56:08;19.42;68.52
75281;HTU21D;63874;47.230;39.620;2023-04-29T07:58:34;19.51;68.84
75281;HTU21D;63874;47.230;39.620;2023-04-29T08:01:09;19.63;68.62
75281;HTU21D;63874;47.230;39.620;2023-04-29T08:03:37;19.72;68.21
75281;HTU21D;63874;47.230;39.620;2023-04-29T08:06:05;19.80;67.73
75281;HTU21D;63874;47.230;39.620;2023-04-29T08:08:33;19.88;67.90
75281;HTU21D;63874;47.230;39.620;2023-04-29T08:10:59;20.00;67.85
75281;HTU21D;63874;47.230;39.620;2023-04-29T08:13:24;20.02;67.41
75281;HTU21D;63874;47.230;39.620;2023-04-29T08:15:50;20.00;67.80
75281;HTU21D;63874;47.230;39.620;2023-04-29T08:18:18;20.10;67.76
75281;HTU21D;63874;47.230;39.620;2023-04-29T08:20:46;20.24;67.51
75281;HTU21D;63874;47.230;39.620;2023-04-29T08:23:13;20.40;67.22
75281;HTU21D;63874;47.230;39.620;2023-04-29T08:25:43;20.63;67.00
75281;HTU21D;63874;47.230;39.620;2023-04-29T08:28:09;20.78;65.50
75281;HTU21D;63874;47.230;39.620;2023-04-29T08:30:41;20.88;65.53
75281;HTU21D;63874;47.230;39.620;2023-04-29T08:33:07;21.08;65.62
75281;HTU21D;63874;47.230;39.620;2023-04-29T08:35:34;21.36;64.33
75281;HTU21D;63874;47.230;39.620;2023-04-29T08:38:03;21.40;63.68
75281;HTU21D;63874;47.230;39.620;2023-04-29T08:40:32;21.30;63.13
75281;HTU21D;63874;47.230;39.620;2023-04-29T08:42:58;21.13;63.24
75281;HTU21D;63874;47.230;39.620;2023-04-29T08:45:26;21.09;63.72
75281;HTU21D;63874;47.230;39.620;2023-04-29T08:47:53;21.15;63.58
75281;HTU21D;63874;47.230;39.620;2023-04-29T08:50:21;21.11;63.13
75281;HTU21D;63874;47.230;39.620;2023-04-29T08:52:49;21.03;63.46
75281;HTU21D;63874;47.230;39.620;2023-04-29T08:55:16;21.01;63.82
75281;HTU21D;63874;47.230;39.620;2023-04-29T08:57:43;21.13;64.27
75281;HTU21D;63874;47.230;39.620;2023-04-29T09:00:11;21.35;63.96
75281;HTU21D;63874;47.230;39.620;2023-04-29T09:02:47;21.65;63.27
75281;HTU21D;63874;47.230;39.620;2023-04-29T09:05:14;21.92;62.68
75281;HTU21D;63874;47.230;39.620;2023-04-29T09:07:41;22.18;61.14
75281;HTU21D;63874;47.230;39.620;2023-04-29T09:10:09;22.27;61.09
75281;HTU21D;63874;47.230;39.620;2023-04-29T09:12:35;22.32;61.15
75281;HTU21D;63874;47.230;39.620;2023-04-29T09:15:02;22.32;60.84
75281;HTU21D;63874;47.230;39.620;2023-04-29T09:17:42;22.36;60.07
75281;HTU21D;63874;47.230;39.620;2023-04-29T09:23:02;24.09;56.10
75281;HTU21D;63874;47.230;39.620;2023-04-29T09:25:29;24.73;55.39
75281;HTU21D;63874;47.230;39.620;2023-04-29T09:27:56;25.23;53.83
75281;HTU21D;63874;47.230;39.620;2023-04-29T09:30:22;25.68;51.73
75281;HTU21D;63874;47.230;39.620;2023-04-29T09:33:06;25.86;51.29
75281;HTU21D;63874;47.230;39.620;2023-04-29T09:35:32;26.03;50.79
75281;HTU21D;63874;47.230;39.620;2023-04-29T09:40:33;26.27;49.85
75281;HTU21D;63874;47.230;39.620;2023-04-29T09:43:17;26.79;49.48
75281;HTU21D;63874;47.230;39.620;2023-04-29T09:45:50;27.53;47.75
75281;HTU21D;63874;47.230;39.620;2023-04-29T09:48:19;27.42;46.40
75281;HTU21D;63874;47.230;39.620;2023-04-29T09:50:58;27.10;46.42
75281;HTU21D;63874;47.230;39.620;2023-04-29T09:53:29;27.86;47.04
75281;HTU21D;63874;47.230;39.620;2023-04-29T09:56:02;29.18;45.09
75281;HTU21D;63874;47.230;39.620;2023-04-29T09:58:32;29.94;42.60
75281;HTU21D;63874;47.230;39.620;2023-04-29T10:01:02;29.26;42.67
75281;HTU21D;63874;47.230;39.620;2023-04-29T10:03:38;28.26;44.34
75281;HTU21D;63874;47.230;39.620;2023-04-29T10:06:05;27.60;45.77
75281;HTU21D;63874;47.230;39.620;2023-04-29T10:08:32;27.10;46.44
75281;HTU21D;63874;47.230;39.620;2023-04-29T10:11:00;26.36;47.89
75281;HTU21D;63874;47.230;39.620;2023-04-29T10:13:26;25.65;49.60
75281;HTU21D;63874;47.230;39.620;2023-04-29T10:18:53;26.28;49.49
75281;HTU21D;63874;47.230;39.620;2023-04-29T10:21:29;27.37;47.94
75281;HTU21D;63874;47.230;39.620;2023-04-29T10:23:58;27.44;46.31
75281;HTU21D;63874;47.230;39.620;2023-04-29T10:26:27;26.77;47.31
75281;HTU21D;63874;47.230;39.620;2023-04-29T10:28:55;26.20;48.70
75281;HTU21D;63874;47.230;39.620;2023-04-29T10:31:24;26.64;48.74
75281;HTU21D;63874;47.230;39.620;2023-04-29T10:33:55;26.90;47.11
75281;HTU21D;63874;47.230;39.620;2023-04-29T10:36:24;26.30;47.96
75281;HTU21D;63874;47.230;39.620;2023-04-29T10:38:57;25.65;49.71
75281;HTU21D;63874;47.230;39.620;2023-04-29T10:41:36;25.35;50.65
75281;HTU21D;63874;47.230;39.620;2023-04-29T10:44:06;25.07;51.17
75281;HTU21D;63874;47.230;39.620;2023-04-29T10:46:33;24.59;52.30
75281;HTU21D;63874;47.230;39.620;2023-04-29T10:49:03;24.17;53.49
75281;HTU21D;63874;47.230;39.620;2023-04-29T10:51:41;24.26;53.72
75281;HTU21D;63874;47.230;39.620;2023-04-29T10:56:47;25.20;52.26
75281;HTU21D;63874;47.230;39.620;2023-04-29T10:59:19;25.30;51.74
75281;HTU21D;63874;47.230;39.620;2023-04-29T11:01:51;25.10;52.09
75281;HTU21D;63874;47.230;39.620;2023-04-29T11:04:21;25.00;52.46
75281;HTU21D;63874;47.230;39.620;2023-04-29T11:06:55;25.19;51.76
75281;HTU21D;63874;47.230;39.620;2023-04-29T11:09:29;25.57;51.79
75281;HTU21D;63874;47.230;39.620;2023-04-29T11:11:58;26.16;49.91
75281;HTU21D;63874;47.230;39.620;2023-04-29T11:14:40;26.85;47.99
75281;HTU21D;63874;47.230;39.620;2023-04-29T11:17:12;27.29;47.23
75281;HTU21D;63874;47.230;39.620;2023-04-29T11:19:59;27.11;47.20
75281;HTU21D;63874;47.230;39.620;2023-04-29T11:22:26;27.20;46.86
75281;HTU21D;63874;47.230;39.620;2023-04-29T11:24:56;26.78;46.76
75281;HTU21D;63874;47.230;39.620;2023-04-29T11:27:35;25.99;47.67
75281;HTU21D;63874;47.230;39.620;2023-04-29T11:30:03;25.45;49.13
75281;HTU21D;63874;47.230;39.620;2023-04-29T11:32:38;25.25;49.32
75281;HTU21D;63874;47.230;39.620;2023-04-29T11:35:16;24.87;48.67
75281;HTU21D;63874;47.230;39.620;2023-04-29T11:37:44;24.48;49.66
75281;HTU21D;63874;47.230;39.620;2023-04-29T11:40:12;24.28;50.37
75281;HTU21D;63874;47.230;39.620;2023-04-29T11:42:45;24.16;50.85
75281;HTU21D;63874;47.230;39.620;2023-04-29T11:45:12;24.17;50.76
75281;HTU21D;63874;47.230;39.620;2023-04-29T11:47:45;24.36;50.40
75281;HTU21D;63874;47.230;39.620;2023-04-29T11:50:12;24.29;50.57
75281;HTU21D;63874;47.230;39.620;2023-04-29T11:52:40;24.02;50.69
75281;HTU21D;63874;47.230;39.620;2023-04-29T11:55:09;23.65;51.08
75281;HTU21D;63874;47.230;39.620;2023-04-29T11:57:39;23.35;51.40
75281;HTU21D;63874;47.230;39.620;2023-04-29T12:00:10;23.03;51.30
75281;HTU21D;63874;47.230;39.620;2023-04-29T12:02:42;22.75;51.76
75281;HTU21D;63874;47.230;39.620;2023-04-29T12:05:08;22.51;52.35
75281;HTU21D;63874;47.230;39.620;2023-04-29T12:07:34;22.31;52.86
75281;HTU21D;63874;47.230;39.620;2023-04-29T12:10:01;22.12;53.45
75281;HTU21D;63874;47.230;39.620;2023-04-29T12:12:27;21.98;53.91
75281;HTU21D;63874;47.230;39.620;2023-04-29T12:14:54;21.89;54.17
75281;HTU21D;63874;47.230;39.620;2023-04-29T12:17:20;21.78;54.52
75281;HTU21D;63874;47.230;39.620;2023-04-29T12:19:46;21.69;54.78
75281;HTU21D;63874;47.230;39.620;2023-04-29T12:22:13;21.63;55.06
75281;HTU21D;63874;47.230;39.620;2023-04-29T12:24:42;21.59;55.31
75281;HTU21D;63874;47.230;39.620;2023-04-29T12:27:08;21.58;55.46
75281;HTU21D;63874;47.230;39.620;2023-04-29T12:29:35;21.55;55.63
75281;HTU21D;63874;47.230;39.620;2023-04-29T12:32:01;21.57;55.79
75281;HTU21D;63874;47.230;39.620;2023-04-29T12:34:28;21.60;56.03
75281;HTU21D;63874;47.230;39.620;2023-04-29T12:36:56;21.65;56.07
75281;HTU21D;63874;47.230;39.620;2023-04-29T12:39:23;21.75;55.97
75281;HTU21D;63874;47.230;39.620;2023-04-29T12:41:57;21.88;55.81
75281;HTU21D;63874;47.230;39.620;2023-04-29T12:44:24;21.95;55.91
75281;HTU21D;63874;47.230;39.620;2023-04-29T12:46:50;22.02;55.78
75281;HTU21D;63874;47.230;39.620;2023-04-29T12:49:23;22.07;55.75
75281;HTU21D;63874;47.230;39.620;2023-04-29T12:51:49;22.13;55.62
75281;HTU21D;63874;47.230;39.620;2023-04-29T12:54:15;22.14;55.70
75281;HTU21D;63874;47.230;39.620;2023-04-29T12:56:41;22.09;56.16
75281;HTU21D;63874;47.230;39.620;2023-04-29T12:59:08;21.75;56.91
75281;HTU21D;63874;47.230;39.620;2023-04-29T13:01:37;21.36;57.80
75281;HTU21D;63874;47.230;39.620;2023-04-29T13:04:04;21.05;58.71
75281;HTU21D;63874;47.230;39.620;2023-04-29T13:06:34;20.80;59.48
75281;HTU21D;63874;47.230;39.620;2023-04-29T13:09:05;20.56;60.11
75281;HTU21D;63874;47.230;39.620;2023-04-29T13:11:31;20.29;60.79
75281;HTU21D;63874;47.230;39.620;2023-04-29T13:13:57;20.11;61.22
75281;HTU21D;63874;47.230;39.620;2023-04-29T13:16:24;19.91;61.60
75281;HTU21D;63874;47.230;39.620;2023-04-29T13:18:50;19.74;62.28
75281;HTU21D;63874;47.230;39.620;2023-04-29T13:21:16;19.56;62.70
75281;HTU21D;63874;47.230;39.620;2023-04-29T13:23:42;19.38;63.35
75281;HTU21D;63874;47.230;39.620;2023-04-29T13:26:07;19.18;63.77
75281;HTU21D;63874;47.230;39.620;2023-04-29T13:28:37;18.98;64.05
75281;HTU21D;63874;47.230;39.620;2023-04-29T13:31:03;18.83;64.74
75281;HTU21D;63874;47.230;39.620;2023-04-29T13:33:29;18.64;65.21
75281;HTU21D;63874;47.230;39.620;2023-04-29T13:35:57;18.52;65.98
75281;HTU21D;63874;47.230;39.620;2023-04-29T13:38:22;18.47;66.32
75281;HTU21D;63874;47.230;39.620;2023-04-29T13:40:48;18.36;66.81
75281;HTU21D;63874;47.230;39.620;2023-04-29T13:43:14;18.27;66.83
75281;HTU21D;63874;47.230;39.620;2023-04-29T13:45:45;18.18;66.98
75281;HTU21D;63874;47.230;39.620;2023-04-29T13:48:11;18.13;67.40
75281;HTU21D;63874;47.230;39.620;2023-04-29T13:50:46;18.06;67.48
75281;HTU21D;63874;47.230;39.620;2023-04-29T13:53:12;17.98;67.86
75281;HTU21D;63874;47.230;39.620;2023-04-29T13:55:38;17.91;67.97
75281;HTU21D;63874;47.230;39.620;2023-04-29T13:58:04;17.89;68.24
75281;HTU21D;63874;47.230;39.620;2023-04-29T14:00:33;17.88;68.33
75281;HTU21D;63874;47.230;39.620;2023-04-29T14:02:59;17.80;68.52
75281;HTU21D;63874;47.230;39.620;2023-04-29T14:05:25;17.73;68.86
75281;HTU21D;63874;47.230;39.620;2023-04-29T14:07:51;17.58;69.00
75281;HTU21D;63874;47.230;39.620;2023-04-29T14:10:17;17.48;69.05
75281;HTU21D;63874;47.230;39.620;2023-04-29T14:12:43;17.41;69.11
75281;HTU21D;63874;47.230;39.620;2023-04-29T14:15:09;17.34;69.40
75281;HTU21D;63874;47.230;39.620;2023-04-29T14:17:35;17.25;69.81
75281;HTU21D;63874;47.230;39.620;2023-04-29T14:20:02;17.17;70.02
75281;HTU21D;63874;47.230;39.620;2023-04-29T14:22:28;17.08;70.15
75281;HTU21D;63874;47.230;39.620;2023-04-29T14:24:54;17.00;70.42
75281;HTU21D;63874;47.230;39.620;2023-04-29T14:27:20;16.91;70.77
75281;HTU21D;63874;47.230;39.620;2023-04-29T14:29:46;16.81;71.00
75281;HTU21D;63874;47.230;39.620;2023-04-29T14:32:12;16.74;70.98
75281;HTU21D;63874;47.230;39.620;2023-04-29T14:34:46;16.65;71.19
75281;HTU21D;63874;47.230;39.620;2023-04-29T14:37:12;16.59;71.45
75281;HTU21D;63874;47.230;39.620;2023-04-29T14:39:38;16.46;71.73
75281;HTU21D;63874;47.230;39.620;2023-04-29T14:42:04;16.33;72.12
75281;HTU21D;63874;47.230;39.620;2023-04-29T14:44:30;16.22;72.54
75281;HTU21D;63874;47.230;39.620;2023-04-29T14:46:56;16.13;73.17
75281;HTU21D;63874;47.230;39.620;2023-04-29T14:49:31;15.98;73.18
75281;HTU21D;63874;47.230;39.620;2023-04-29T14:51:57;15.91;73.58
75281;HTU21D;63874;47.230;39.620;2023-04-29T14:54:23;15.85;74.04
75281;HTU21D;63874;47.230;39.620;2023-04-29T14:56:51;15.84;74.24
75281;HTU21D;63874;47.230;39.620;2023-04-29T14:59:17;15.80;74.44
75281;HTU21D;63874;47.230;39.620;2023-04-29T15:01:43;15.78;74.67
75281;HTU21D;63874;47.230;39.620;2023-04-29T15:04:09;15.77;74.89
75281;HTU21D;63874;47.230;39.620;2023-04-29T15:06:37;15.77;75.39
75281;HTU21D;63874;47.230;39.620;2023-04-29T15:09:03;15.75;75.42
75281;HTU21D;63874;47.230;39.620;2023-04-29T15:11:29;15.72;75.48
75281;HTU21D;63874;47.230;39.620;2023-04-29T15:13:55;15.69;75.65
75281;HTU21D;63874;47.230;39.620;2023-04-29T15:16:21;15.68;75.81
75281;HTU21D;63874;47.230;39.620;2023-04-29T15:18:47;15.67;75.93
75281;HTU21D;63874;47.230;39.620;2023-04-29T15:21:12;15.66;76.29
75281;HTU21D;63874;47.230;39.620;2023-04-29T15:23:38;15.61;76.39
75281;HTU21D;63874;47.230;39.620;2023-04-29T15:26:04;15.55;76.54
75281;HTU21D;63874;47.230;39.620;2023-04-29T15:28:31;15.51;76.47
75281;HTU21D;63874;47.230;39.620;2023-04-29T15:30:59;15.49;77.16
75281;HTU21D;63874;47.230;39.620;2023-04-29T15:33:28;15.42;77.23
75281;HTU21D;63874;47.230;39.620;2023-04-29T15:35:55;15.34;77.47